• Join FlightAware (Why Join?)
  • Login
  • US Flag 
05:42PM EDT


 

Airport Tracker/Info


-or-


 

Live Flight TrackerFlight Track Log ✈ N566UA ✈ 16-Apr-2013 ✈ KSFO - KIAH

Flight Track Log - Related Links

Times and Time Zones

All times are in EDT time to prevent confusion due to time zone crossing. See the N566UA flight status page for this flight to view local times or setup timezone preferences in your user account.

Time Position Orientation Groundspeed Altitude Reporting Facility
EDT Latitude Longitude Course Direction KTS MPH feet Rate Location/Type
07:28PM 37.6833 -122.3667 134° Southeast 198 228 2,800  Level Northern Cal TRACON
07:29PM 37.6667 -122.4333 252° West 273 314 5,600 3,060 Climbing Northern Cal TRACON
07:30PM 37.4262 -122.3454 113° Southeast  Level FlightAware Approximate
07:30PM 37.6000 -122.4500 191° South 301 346 9,000  Level Northern Cal TRACON
07:31PM 37.3415 -122.2165 136° Southeast  Level FlightAware Approximate
07:31PM 37.5653 -122.4511 181° South 293 337 10,000  Level Oakland Center
07:32PM 37.2540 -122.0893 130° Southeast  Level FlightAware Approximate
07:32PM 37.4767 -122.4142 162° South 350 403 11,900  Level Oakland Center
07:33PM 37.1615 -121.9670 134° Southeast  Level FlightAware Approximate
07:33PM 37.4047 -122.3106 131° Southeast 394 453 14,400  Level Oakland Center
07:34PM 37.3231 -122.2011 133° Southeast 426 490 16,500 1,560 Climbing Oakland Center
07:35PM 37.2353 -122.0792 132° Southeast 473 544 17,700 1,620 Climbing Oakland Center
07:36PM 37.1419 -121.9517 133° Southeast 495 570 19,900 2,400 Climbing Oakland Center
07:37PM 37.0236 -121.7939 133° Southeast 518 596 22,600 2,280 Climbing Oakland Center
07:38PM 36.9239 -121.6606 133° Southeast 523 602 24,600 1,740 Climbing Oakland Center
07:39PM 36.8217 -121.5233 133° Southeast 539 620 26,200 1,560 Climbing Oakland Center
07:40PM 36.7267 -121.3978 133° Southeast 546 628 27,800 1,380 Climbing Oakland Center
07:41PM 36.6208 -121.2553 133° Southeast 559 643 29,100 1,320 Climbing Oakland Center
07:42PM 36.5136 -121.1114 133° Southeast 565 650 30,600 1,740 Climbing Oakland Center
07:43PM 36.3881 -120.9431 133° Southeast 556 640 32,700 1,800 Climbing Oakland Center
07:44PM 36.2819 -120.8017 133° Southeast 559 643 34,300 1,200 Climbing Oakland Center
07:45PM 36.1750 -120.6628 134° Southeast 559 643 35,200 1,080 Climbing Oakland Center
07:46PM 36.0667 -120.5211 133° Southeast 564 649 36,500 840 Climbing Oakland Center
07:47PM 35.9617 -120.3819 133° Southeast 554 638 37,000 240 Climbing Oakland Center
07:48PM 35.8544 -120.2450 134° Southeast 552 635 37,000 -60 Level Oakland Center
07:49PM 35.7481 -120.1086 134° Southeast 549 632 36,900  Descending Oakland Center
07:50PM 35.6456 -119.9686 132° Southeast 543 625 37,000  Climbing Oakland Center
07:51PM 35.5664 -119.8028 120° Southeast 556 640 37,000  Level Oakland Center
07:52PM 35.4897 -119.6372 120° Southeast 556 640 37,000 -60 Level Oakland Center
07:53PM 35.4136 -119.4722 119° Southeast 554 638 36,900 -60 Descending Oakland Center
07:54PM 35.2939 -119.2544 124° Southeast 550 633 36,900  Level Los Angeles Center
07:56PM 35.2072 -119.0986 124° Southeast 552 635 36,900  Level Los Angeles Center
07:57PM 35.1222 -118.9408 123° Southeast 557 641 37,000  Climbing Los Angeles Center
07:58PM 35.0339 -118.7836 124° Southeast 558 642 37,000  Level Los Angeles Center
07:59PM 34.9303 -118.5953 124° Southeast 559 643 37,000  Level Los Angeles Center
08:00PM 34.8442 -118.4403 124° Southeast 556 640 37,000  Level Los Angeles Center
08:01PM 34.7578 -118.2867 124° Southeast 555 639 37,000  Level Los Angeles Center
08:02PM 34.6708 -118.1353 125° Southeast 553 636 37,000  Level Los Angeles Center
08:03PM 34.6011 -117.9667 117° Southeast 575 662 37,000  Level Los Angeles Center
08:04PM 34.5378 -117.7514 110° East 573 659 37,000  Level Los Angeles Center
08:05PM 34.4842 -117.5697 110° East 576 663 37,000  Level Los Angeles Center
08:06PM 34.4297 -117.3928 110° East 569 655 37,000  Level Los Angeles Center
08:07PM 34.3778 -117.2194 110° East 571 657 37,000  Level Los Angeles Center
08:08PM 34.3197 -117.0328 111° Southeast 574 661 37,000  Level Los Angeles Center
08:09PM 34.2522 -116.8192 111° Southeast 571 657 37,000  Level Los Angeles Center
08:10PM 34.1964 -116.6417 111° Southeast 570 656 37,000  Level Los Angeles Center
08:11PM 34.1419 -116.4639 110° East 567 652 37,000  Level Los Angeles Center
08:12PM 34.0889 -116.2850 110° East 560 644 37,000  Level Los Angeles Center
08:13PM 34.0331 -116.1075 111° Southeast 563 648 37,000  Level Los Angeles Center
08:14PM 33.9750 -115.9269 111° Southeast 571 657 37,000  Level Los Angeles Center
08:15PM 33.9061 -115.7106 111° Southeast 572 658 37,000  Level Los Angeles Center
08:16PM 33.8475 -115.5336 112° Southeast 568 654 37,000 -60 Level Los Angeles Center
08:17PM 33.7906 -115.3564 111° Southeast 567 652 36,900  Descending Los Angeles Center
08:18PM 33.7322 -115.1794 112° Southeast 569 655 37,000  Climbing Los Angeles Center
08:19PM 33.6736 -115.0033 112° Southeast 568 654 36,900  Descending Los Angeles Center
08:20PM 33.6164 -114.8258 111° Southeast 569 655 37,000  Climbing Los Angeles Center
08:21PM 33.5656 -114.6067 105° East 574 661 37,000  Level Los Angeles Center
08:22PM 33.5356 -114.4194 101° East 571 657 37,000 -60 Level Los Angeles Center
08:23PM 33.5025 -114.2328 102° East 572 658 36,900  Descending Los Angeles Center
08:25PM 33.4681 -114.0267 101° East 573 659 37,000 120 Climbing Albuquerque Center
08:26PM 33.4342 -113.8394 102° East 575 662 37,200 900 Climbing Albuquerque Center
08:27PM 33.3950 -113.6183 102° East 568 654 38,900 840 Climbing Albuquerque Center
08:28PM 33.3631 -113.4422 102° East 550 633 39,000  Climbing Albuquerque Center
08:29PM 33.3308 -113.2681 102° East 538 619 39,000 -60 Level Albuquerque Center
08:30PM 33.2978 -113.0897 102° East 543 625 38,900  Descending Albuquerque Center
08:31PM 33.2633 -112.9094 103° East 551 634 39,000  Climbing Albuquerque Center
08:32PM 33.2289 -112.7286 103° East 555 639 39,000  Level Albuquerque Center
08:33PM 33.1922 -112.5386 103° East 553 636 39,000  Level Albuquerque Center
08:34PM 33.1575 -112.3594 103° East 557 641 39,000 -480 Level Albuquerque Center
08:35PM 33.1231 -112.1814 103° East 556 640 38,100 -1,020 Descending Albuquerque Center
08:36PM 33.0872 -111.9997 103° East 564 649 37,000 -540 Descending Albuquerque Center
08:37PM 33.0444 -111.7769 103° East 577 664 37,000  Level Albuquerque Center
08:38PM 33.0075 -111.5931 103° East 576 663 37,000  Level Albuquerque Center
08:39PM 32.9703 -111.4125 104° East 567 652 37,000  Level Albuquerque Center
08:40PM 32.9347 -111.2289 103° East 571 657 37,000  Level Albuquerque Center
08:41PM 32.8967 -111.0478 104° East 569 655 37,000  Level Albuquerque Center
08:42PM 32.8592 -110.8661 104° East 569 655 37,000  Level Albuquerque Center
08:43PM 32.8228 -110.6836 103° East 570 656 37,000  Level Albuquerque Center
08:44PM 32.7806 -110.4886 104° East 570 656 37,000  Level Albuquerque Center
08:45PM 32.7431 -110.3094 104° East 567 652 37,000  Level Albuquerque Center
08:46PM 32.6967 -110.0933 104° East 569 655 37,000  Level Albuquerque Center
08:47PM 32.6581 -109.9158 104° East 564 649 37,000  Level Albuquerque Center
08:48PM 32.6208 -109.7381 104° East 564 649 37,000  Level Albuquerque Center
08:49PM 32.5794 -109.5575 105° East 571 657 37,000  Level Albuquerque Center
08:50PM 32.5414 -109.3844 105° East 554 638 37,000  Level Albuquerque Center
08:51PM 32.4944 -109.1722 105° East 561 646 37,000  Level Albuquerque Center
08:52PM 32.4556 -108.9967 105° East 562 647 37,000  Level Albuquerque Center
08:53PM 32.4161 -108.8236 105° East 557 641 37,000  Level Albuquerque Center
08:54PM 32.3764 -108.6497 105° East 556 640 37,000  Level Albuquerque Center
08:55PM 32.3378 -108.4750 105° East 558 642 37,000  Level Albuquerque Center
08:56PM 32.2914 -108.2756 105° East 557 641 37,000 -60 Level Albuquerque Center
08:58PM 32.2511 -108.1006 105° East 555 639 36,900 -60 Descending Albuquerque Center
08:59PM 32.2119 -107.9275 105° East 552 635 36,900  Level Albuquerque Center
09:00PM 32.1717 -107.7544 105° East 551 634 37,000  Climbing Albuquerque Center
09:01PM 32.1317 -107.5828 105° East 550 633 37,000  Level Albuquerque Center
09:02PM 32.0825 -107.3775 106° East 548 631 37,000 -60 Level Albuquerque Center
09:03PM 32.0428 -107.2086 105° East 545 627 36,900 -60 Descending Albuquerque Center
09:04PM 32.0036 -107.0408 105° East 539 620 36,900  Level Albuquerque Center
09:05PM 31.9622 -106.8725 106° East 540 621 36,900  Level Albuquerque Center
09:06PM 31.9211 -106.7050 106° East 538 619 37,000  Climbing Albuquerque Center
09:07PM 31.8714 -106.5069 106° East 542 624 37,000  Level Albuquerque Center
09:08PM 31.8306 -106.3353 106° East 545 627 37,000  Level Albuquerque Center
09:09PM 31.8014 -106.1617 101° East 541 623 37,000 -60 Level Albuquerque Center
09:10PM 31.7808 -105.9861 98° East 540 621 36,900  Descending Albuquerque Center
09:11PM 31.7597 -105.8117 98° East 540 621 37,000  Climbing Albuquerque Center
09:12PM 31.7383 -105.6375 98° East 539 620 37,000 -60 Level Albuquerque Center
09:13PM 31.7169 -105.4628 98° East 539 620 36,900 -60 Descending Albuquerque Center
09:14PM 31.6956 -105.2878 98° East 540 621 36,900  Level Albuquerque Center
09:15PM 31.6708 -105.0794 98° East 537 618 37,000  Climbing Albuquerque Center
09:16PM 31.6478 -104.9053 99° East 538 619 37,000  Level Albuquerque Center
09:17PM 31.6256 -104.7297 98° East 540 621 37,000  Level Albuquerque Center
09:18PM 31.6025 -104.5564 99° East 539 620 37,000  Level Albuquerque Center
09:19PM 31.5800 -104.3839 99° East 537 618 37,000  Level Albuquerque Center
09:20PM 31.5581 -104.2122 98° East 535 616 37,000  Level Albuquerque Center
09:21PM 31.5350 -104.0417 99° East 532 612 37,000 -60 Level Albuquerque Center
09:22PM 31.5114 -103.8725 99° East 529 609 36,900  Descending Albuquerque Center
09:23PM 31.4892 -103.7053 99° East 527 606 37,000  Climbing Albuquerque Center
09:24PM 31.4503 -103.5067 103° East 522 601 36,900  Descending Albuquerque Center
09:25PM 31.3936 -103.3506 113° Southeast 521 600 37,000  Climbing Albuquerque Center
09:26PM 31.3422 -103.1939 111° Southeast 519 597 37,000  Level Albuquerque Center
09:27PM 31.2894 -103.0408 112° Southeast 512 589 37,000  Level Albuquerque Center
09:28PM 31.2372 -102.8850 111° Southeast 516 594 37,000 -60 Level Albuquerque Center
09:29PM 31.1844 -102.7286 111° Southeast 519 597 36,900 -60 Descending Albuquerque Center
09:30PM 31.1311 -102.5731 112° Southeast 521 600 36,900  Level Albuquerque Center
09:31PM 31.0761 -102.4094 111° Southeast 527 606 37,000  Climbing Albuquerque Center
09:32PM 31.0222 -102.2544 112° Southeast 523 602 37,000 -60 Level Albuquerque Center
09:33PM 30.9622 -102.0778 112° Southeast 518 596 36,900  Descending Albuquerque Center
09:34PM 30.9075 -101.9214 112° Southeast 522 601 37,000  Climbing Albuquerque Center
09:35PM 30.8533 -101.7661 112° Southeast 522 601 37,000  Level Albuquerque Center
09:37PM 30.7700 -101.5294 112° Southeast 520 598 37,000  Level Houston Center
09:38PM 30.7158 -101.3733 112° Southeast 520 598 37,000  Level Houston Center
09:39PM 30.6606 -101.2189 113° Southeast 520 598 37,000  Level Houston Center
09:40PM 30.6069 -101.0617 112° Southeast 521 600 37,000 -60 Level Houston Center
09:41PM 30.5514 -100.9061 112° Southeast 522 601 36,900 -60 Descending Houston Center
09:42PM 30.4958 -100.7511 113° Southeast 521 600 36,900  Level Houston Center
09:43PM 30.4403 -100.5956 112° Southeast 522 601 37,000  Climbing Houston Center
09:44PM 30.3836 -100.4414 113° Southeast 520 598 36,900  Descending Houston Center
09:45PM 30.3256 -100.2831 113° Southeast 527 606 37,000  Climbing Houston Center
09:46PM 30.2697 -100.1250 112° Southeast 524 603 36,900  Descending Houston Center
09:47PM 30.2114 -99.9675 113° Southeast 525 604 37,000  Climbing Houston Center
09:48PM 30.1539 -99.8128 113° Southeast 522 601 37,000 -60 Level Houston Center
09:49PM 30.0961 -99.6589 113° Southeast 520 598 36,900  Descending Houston Center
09:50PM 30.0383 -99.5061 114° Southeast 518 596 37,000  Climbing Houston Center
09:51PM 29.9722 -99.3239 113° Southeast 515 593 37,000  Level Houston Center
09:52PM 29.9144 -99.1739 114° Southeast 513 590 37,000  Level Houston Center
09:53PM 29.8553 -99.0169 113° Southeast 511 588 37,000  Level Houston Center
09:54PM 29.7997 -98.8664 113° Southeast 511 588 37,000  Level Houston Center
09:55PM 29.7431 -98.7183 114° Southeast 507 583 37,000 -300 Level Houston Center
09:56PM 29.6831 -98.5606 114° Southeast 500 575 36,400 -660 Descending Houston Center
09:57PM 29.6475 -98.4044 105° East 507 583 35,700 -720 Descending Houston Center
09:58PM 29.6475 -98.2433 90° East 499 574 35,000 -360 Descending Houston Center
09:59PM 29.6506 -98.0850 89° East 496 571 35,000 -60 Level Houston Center
10:00PM 29.6511 -97.9278 90° East 493 567 34,900 -540 Descending Houston Center
10:01PM 29.6406 -97.7903 95° East 495 570 34,000 -1,200 Descending Houston Center
10:02PM 29.6317 -97.6319 94° East 499 574 32,500 -1,680 Descending Houston Center
10:03PM 29.6203 -97.4425 94° East 494 568 30,600 -2,100 Descending Houston Center
10:04PM 29.6119 -97.2833 93° East 497 572 28,300 -2,580 Descending Houston Center
10:05PM 29.6036 -97.1208 93° East 505 581 25,400 -3,000 Descending Houston Center
10:06PM 29.5947 -96.9622 94° East 496 571 22,200 -2,880 Descending Houston Center
10:07PM 29.5858 -96.8075 94° East 481 554 19,600 -2,700 Descending Houston Center
10:08PM 29.5769 -96.6581 94° East 468 539 16,800 -2,640 Descending Houston Center
10:09PM 29.5725 -96.6125 96° East 441 507 16,100 -2,700 Descending Houston Center
10:09PM 29.5678 -96.5239 93° East 425 489 14,100 -2,940 Descending Houston Center
10:10PM 29.5644 -96.4644 94° East 405 466 12,900 -2,760 Descending Houston Center
10:10PM 29.5586 -96.3944 95° East 409 471 11,300 -2,400 Descending Houston Center
10:11PM 29.5542 -96.3433 96° East 405 466 10,500 -1,320 Descending Houston Center
10:11PM 29.5517 -96.2689 92° East 397 457 10,000 -540 Descending Houston Center
10:12PM 29.5481 -96.2192 95° East 347 399 10,000  Level Houston Center
10:12PM 29.5483 -96.1619 90° East 350 403 10,000  Level Houston Center
10:13PM 29.5686 -96.1161 63° Northeast 326 375 10,000 -120 Level Houston Center
10:14PM 29.5950 -96.0678 58° Northeast 339 390 9,900  Descending Houston Center
10:14PM 29.6192 -96.0214 59° Northeast 346 398 10,000  Climbing Houston Center
10:15PM 29.6422 -95.9758 60° Northeast 335 386 9,900 -600 Descending Houston Center
10:15PM 29.6583 -95.9425 61° Northeast 302 348 9,500 -720 Descending Houston Center
10:16PM 29.7019 -95.9097 33° Northeast 315 362 9,200 -780 Descending Houston Center
10:16PM 29.7292 -95.8886 34° Northeast 305 351 8,700 -1,320 Descending Houston Center
10:17PM 29.7658 -95.8483 44° Northeast 304 350 7,900 -1,320 Descending Houston Center
10:17PM 29.7925 -95.8189 44° Northeast 301 346 7,400 -1,200 Descending Houston Center
10:18PM 29.8281 -95.7836 41° Northeast 300 345 6,700 -1,380 Descending Houston Center
10:18PM 29.8542 -95.7589 39° Northeast 292 336 6,000 -1,440 Descending Houston Center
10:19PM 29.9097 -95.6992 43° Northeast 290 334 5,000 -1,140 Descending Houston Center
10:20PM 29.9478 -95.6594 42° Northeast 286 329 4,100 -900 Descending Houston Center
10:21PM 29.9900 -95.5908 55° Northeast 263 303 3,400 -600 Descending Houston Center
10:22PM 29.9944 -95.5225 86° East 230 265 2,900 -840 Descending Houston Center
10:23PM 29.9944 -95.4478 90° East 209 241 1,700 -960 Descending Houston Center
10:24PM 29.9939 -95.4075 91° East 156 180 1,000 -660 Descending Houston Center
10:25PM 29.9939 -95.3708 90° East 128 147 400 -600 Descending Houston Center
10:27PM 29.9833 -95.3333 49° Northeast  Level FlightAware Approximate